Time;durP1;ratioP1;P1;durP2;ratioP2;P2;SDS_P1;SDS_P2;PMS_P1;PMS_P2;Temp;Humidity;BMP_temperature;BMP_pressure;BME280_temperature;BME280_humidity;BME280_pressure;Samples;Min_cycle;Max_cycle;Signal;HPM_P1;HPM_P2
2022/06/17 00:01:26;;;;;;;4.97;1.88;;;;;;;-141.50;100.00;63355.56;5073155;28;20072;-80
2022/06/17 00:03:53;;;;;;;6.47;2.20;;;;;;;-141.50;100.00;63355.56;5072518;28;20056;-80
2022/06/17 00:06:23;;;;;;;3.85;2.17;;;;;;;-141.50;100.00;63355.56;5073158;28;20052;-79
2022/06/17 00:08:53;;;;;;;8.52;2.30;;;;;;;-141.50;100.00;63355.56;5056997;28;20060;-79
2022/06/17 00:11:32;;;;;;;6.78;2.00;;;;;;;-141.50;100.00;63355.56;5078965;28;20040;-81
2022/06/17 00:13:58;;;;;;;6.10;2.10;;;;;;;-141.50;100.00;63355.56;5081469;28;20079;-82
2022/06/17 00:16:31;;;;;;;4.78;2.10;;;;;;;-141.50;100.00;63355.56;5060803;28;20115;-80
2022/06/17 00:18:58;;;;;;;5.22;2.08;;;;;;;-141.50;100.00;63355.56;5077495;28;20374;-82
2022/06/17 00:21:37;;;;;;;5.97;1.80;;;;;;;-141.50;100.00;63355.56;5077756;28;20044;-78
2022/06/17 00:24:14;;;;;;;3.97;1.92;;;;;;;-141.50;100.00;63355.56;5063324;28;20060;-78
2022/06/17 00:26:41;;;;;;;5.95;2.40;;;;;;;-141.50;100.00;63355.56;5066946;28;20056;-81
2022/06/17 00:29:21;;;;;;;3.55;2.05;;;;;;;-141.50;100.00;63355.56;5079689;28;20079;-81
2022/06/17 00:31:48;;;;;;;3.85;1.75;;;;;;;-141.50;100.00;63355.56;5060928;28;20049;-80
2022/06/17 00:34:15;;;;;;;4.75;1.95;;;;;;;-141.50;100.00;63355.56;5060782;28;20125;-80
2022/06/17 00:36:45;;;;;;;8.30;2.17;;;;;;;-141.50;100.00;63355.56;5060925;28;20109;-82
2022/06/17 00:39:17;;;;;;;9.10;2.35;;;;;;;-141.50;100.00;63355.56;5061797;28;20048;-82
2022/06/17 00:41:50;;;;;;;8.85;1.88;;;;;;;-141.50;100.00;63355.56;5088099;28;20047;-79
2022/06/17 00:44:26;;;;;;;4.07;2.17;;;;;;;-141.50;100.00;63355.56;5092573;28;20045;-80
2022/06/17 00:46:59;;;;;;;7.47;2.50;;;;;;;-141.50;100.00;63355.56;5091614;28;20117;-80
2022/06/17 00:49:40;;;;;;;3.15;1.90;;;;;;;-141.50;100.00;63355.56;5091439;28;20052;-79
2022/06/17 00:52:17;;;;;;;5.93;2.10;;;;;;;-141.50;100.00;63355.56;5089793;28;20044;-80
2022/06/17 00:54:43;;;;;;;5.00;2.33;;;;;;;-141.50;100.00;63355.56;5089500;28;20066;-80
2022/06/17 00:57:27;;;;;;;4.18;1.95;;;;;;;-141.50;100.00;63355.56;5068770;28;20052;-80
2022/06/17 01:00:21;;;;;;;4.95;1.77;;;;;;;-141.50;100.00;63355.56;5087330;28;20040;-79
2022/06/17 01:02:56;;;;;;;4.15;2.08;;;;;;;-141.50;100.00;63355.56;5088877;28;20043;-79
2022/06/17 01:05:28;;;;;;;6.68;2.10;;;;;;;-141.50;100.00;63355.56;5091940;28;20028;-80
2022/06/17 01:08:03;;;;;;;5.15;2.03;;;;;;;-141.50;100.00;63355.56;5081515;28;20053;-80
2022/06/17 01:10:31;;;;;;;4.30;1.90;;;;;;;-141.50;100.00;63355.56;5080434;28;20049;-80
2022/06/17 01:13:00;;;;;;;7.57;1.95;;;;;;;-141.50;100.00;63355.56;5079991;28;20061;-81
2022/06/17 01:15:29;;;;;;;7.43;1.95;;;;;;;-141.50;100.00;63355.56;5080244;28;20400;-80
2022/06/17 01:17:57;;;;;;;5.20;2.10;;;;;;;-141.50;100.00;63355.56;5083651;28;20045;-80
2022/06/17 01:20:25;;;;;;;5.25;1.90;;;;;;;-141.50;100.00;63355.56;5082743;28;20422;-79
2022/06/17 01:22:55;;;;;;;5.68;2.03;;;;;;;-141.50;100.00;63355.56;5085808;28;20094;-82
2022/06/17 01:25:27;;;;;;;7.80;2.22;;;;;;;-141.50;100.00;63355.56;5067737;28;20052;-81
2022/06/17 01:27:57;;;;;;;4.90;2.08;;;;;;;-141.50;100.00;63355.56;5067392;28;20135;-80
2022/06/17 01:30:28;;;;;;;3.42;1.70;;;;;;;-141.50;100.00;63355.56;5084623;28;20080;-81
2022/06/17 01:32:57;;;;;;;5.55;2.00;;;;;;;-141.50;100.00;63355.56;5083811;28;20122;-80
2022/06/17 01:35:28;;;;;;;11.15;2.60;;;;;;;-141.50;100.00;63355.56;5060335;28;20098;-78
2022/06/17 01:37:57;;;;;;;3.40;1.98;;;;;;;-141.50;100.00;63355.56;5077559;28;20121;-81
2022/06/17 01:40:28;;;;;;;4.15;2.00;;;;;;;-141.50;100.00;63355.56;5079751;28;20483;-79
2022/06/17 01:42:59;;;;;;;5.13;1.98;;;;;;;-141.50;100.00;63355.56;5062641;28;20050;-81
2022/06/17 01:45:26;;;;;;;4.15;2.20;;;;;;;-141.50;100.00;63355.56;5064368;28;20594;-79
2022/06/17 01:47:53;;;;;;;5.40;1.90;;;;;;;-141.50;100.00;63355.56;5085219;28;20078;-79
2022/06/17 01:50:26;;;;;;;4.68;2.10;;;;;;;-141.50;100.00;63355.56;5084971;28;20049;-80
2022/06/17 01:53:02;;;;;;;2.85;1.88;;;;;;;-141.50;100.00;63355.56;5084259;28;20098;-81
2022/06/17 01:55:40;;;;;;;4.88;2.10;;;;;;;-141.50;100.00;63355.56;5065989;28;20075;-80
2022/06/17 01:58:21;;;;;;;10.57;2.50;;;;;;;-141.50;100.00;63355.56;5066045;28;20049;-79
2022/06/17 02:00:48;;;;;;;5.78;2.22;;;;;;;-141.50;100.00;63355.56;5083307;28;20048;-80
2022/06/17 02:03:38;;;;;;;9.20;2.20;;;;;;;-141.50;100.00;63355.56;5084116;28;20082;-79
2022/06/17 02:06:08;;;;;;;3.83;2.30;;;;;;;-141.50;100.00;63355.56;5066164;28;20044;-79
2022/06/17 02:08:37;;;;;;;7.53;2.05;;;;;;;-141.50;100.00;63355.56;5083405;28;20048;-79
2022/06/17 02:11:08;;;;;;;5.20;2.38;;;;;;;-141.50;100.00;63355.56;5083940;28;20059;-79
2022/06/17 02:13:39;;;;;;;2.45;2.00;;;;;;;-141.50;100.00;63355.56;5066660;28;20063;-80
2022/06/17 02:16:07;;;;;;;4.85;2.22;;;;;;;-141.50;100.00;63355.56;5066184;28;20052;-79
2022/06/17 02:18:35;;;;;;;4.72;2.22;;;;;;;-141.50;100.00;63355.56;5082966;28;20391;-80
2022/06/17 02:21:07;;;;;;;6.75;2.25;;;;;;;-141.50;100.00;63355.56;5075532;28;20486;-79
2022/06/17 02:23:34;;;;;;;6.03;2.40;;;;;;;-141.50;100.00;63355.56;5057836;28;20103;-78
2022/06/17 02:26:02;;;;;;;5.60;2.35;;;;;;;-141.50;100.00;63355.56;5068987;28;20094;-78
2022/06/17 02:28:31;;;;;;;6.63;2.97;;;;;;;-141.50;100.00;63355.56;5073144;28;20056;-79
2022/06/17 02:30:59;;;;;;;4.97;2.47;;;;;;;-141.50;100.00;63355.56;5093953;28;20213;-78
2022/06/17 02:33:28;;;;;;;4.30;2.58;;;;;;;-141.50;100.00;63355.56;5091648;28;20078;-82
2022/06/17 02:36:00;;;;;;;7.32;3.33;;;;;;;-141.50;100.00;63355.56;5084410;28;20045;-81
2022/06/17 02:38:30;;;;;;;4.30;2.63;;;;;;;-141.50;100.00;63355.56;5084301;28;20444;-81
2022/06/17 02:41:00;;;;;;;5.03;2.72;;;;;;;-141.50;100.00;63355.56;5084046;28;20048;-82
2022/06/17 02:43:31;;;;;;;4.30;2.85;;;;;;;-141.50;100.00;63355.56;5081982;28;20056;-83
2022/06/17 02:46:04;;;;;;;7.80;3.20;;;;;;;-141.50;100.00;63355.56;5063205;28;20139;-81
2022/06/17 02:48:41;;;;;;;7.85;2.78;;;;;;;-141.50;100.00;63355.56;5077807;28;20056;-78
2022/06/17 02:51:11;;;;;;;8.10;3.08;;;;;;;-141.50;100.00;63355.56;5072967;28;20048;-80
2022/06/17 02:53:41;;;;;;;4.30;2.63;;;;;;;-141.50;100.00;63355.56;5074459;28;20049;-80
2022/06/17 02:56:30;;;;;;;6.68;2.92;;;;;;;-141.50;100.00;63355.56;5084608;28;20059;-79
2022/06/17 02:59:14;;;;;;;4.68;3.00;;;;;;;-141.50;100.00;63355.56;5080708;28;20072;-80
2022/06/17 03:01:41;;;;;;;8.93;3.13;;;;;;;-141.50;100.00;63355.56;5065894;28;20048;-80
2022/06/17 03:04:15;;;;;;;7.07;3.05;;;;;;;-141.50;100.00;63355.56;5066114;28;20044;-80
2022/06/17 03:06:45;;;;;;;3.92;2.65;;;;;;;-141.50;100.00;63355.56;5088301;28;20037;-79
2022/06/17 03:09:26;;;;;;;5.95;2.67;;;;;;;-141.50;100.00;63355.56;5071579;28;20052;-80
2022/06/17 03:11:57;;;;;;;4.45;2.78;;;;;;;-141.50;100.00;63355.56;5088571;28;20117;-81
2022/06/17 03:14:28;;;;;;;5.10;2.45;;;;;;;-141.50;100.00;63355.56;5082043;28;20052;-79
2022/06/17 03:16:59;;;;;;;6.18;2.45;;;;;;;-141.50;100.00;63355.56;5065653;28;20064;-81
2022/06/17 03:19:28;;;;;;;5.68;2.33;;;;;;;-141.50;100.00;63355.56;5067685;28;20052;-81
2022/06/17 03:21:55;;;;;;;6.10;2.40;;;;;;;-141.50;100.00;63355.56;5081220;28;20068;-81
2022/06/17 03:24:27;;;;;;;4.50;2.63;;;;;;;-141.50;100.00;63355.56;5063453;28;20091;-80
2022/06/17 03:27:12;;;;;;;9.73;2.92;;;;;;;-141.50;100.00;63355.56;5081748;28;20142;-82
2022/06/17 03:29:41;;;;;;;11.95;2.78;;;;;;;-141.50;100.00;63355.56;5082438;28;20084;-80
2022/06/17 03:32:23;;;;;;;7.13;2.60;;;;;;;-141.50;100.00;63355.56;5083585;28;20058;-79
2022/06/17 03:34:53;;;;;;;5.72;2.72;;;;;;;-141.50;100.00;63355.56;5082956;28;20045;-81
2022/06/17 03:37:23;;;;;;;4.25;2.30;;;;;;;-141.50;100.00;63355.56;5081581;28;20053;-83
2022/06/17 03:40:07;;;;;;;5.57;2.60;;;;;;;-141.50;100.00;63355.56;5081783;28;20109;-81
2022/06/17 03:43:02;;;;;;;9.05;2.78;;;;;;;-141.50;100.00;63355.56;5081701;28;20446;-82
2022/06/17 03:45:43;;;;;;;5.78;2.67;;;;;;;-141.50;100.00;63355.56;5079353;28;20045;-81
2022/06/17 03:48:13;;;;;;;4.85;2.45;;;;;;;-141.50;100.00;63355.56;5079444;28;20445;-79
2022/06/17 03:50:45;;;;;;;9.38;2.90;;;;;;;-141.50;100.00;63355.56;5079216;28;20052;-80
2022/06/17 03:53:36;;;;;;;7.53;2.67;;;;;;;-141.50;100.00;63355.56;5076329;28;20052;-80
2022/06/17 03:56:31;;;;;;;6.32;2.92;;;;;;;-141.50;100.00;63355.56;5074295;28;20052;-79
2022/06/17 03:59:03;;;;;;;3.85;2.50;;;;;;;-141.50;100.00;63355.56;5078676;28;20056;-82
2022/06/17 04:01:46;;;;;;;17.35;2.78;;;;;;;-141.50;100.00;63355.56;5079244;28;20071;-81
2022/06/17 04:04:23;;;;;;;6.25;2.75;;;;;;;-141.50;100.00;63355.56;5080679;28;20538;-82
2022/06/17 04:06:54;;;;;;;6.50;2.67;;;;;;;-141.50;100.00;63355.56;5081833;28;20059;-80
2022/06/17 04:09:26;;;;;;;8.50;2.83;;;;;;;-141.50;100.00;63355.56;5066860;28;20044;-79
2022/06/17 04:11:59;;;;;;;11.20;3.22;;;;;;;-141.50;100.00;63355.56;5078562;28;20057;-80
2022/06/17 04:14:28;;;;;;;14.48;2.90;;;;;;;-141.50;100.00;63355.56;5075907;28;20117;-79
2022/06/17 04:17:18;;;;;;;9.00;2.78;;;;;;;-141.50;100.00;63355.56;5081902;28;20052;-80
2022/06/17 04:20:09;;;;;;;13.27;3.22;;;;;;;-141.50;100.00;63355.56;5060095;28;20053;-79
2022/06/17 04:22:36;;;;;;;4.38;2.83;;;;;;;-141.50;100.00;63355.56;5075955;28;20048;-79
2022/06/17 04:25:07;;;;;;;7.63;2.92;;;;;;;-141.50;100.00;63355.56;5094713;28;20032;-81
2022/06/17 04:28:07;;;;;;;6.22;2.70;;;;;;;-141.50;100.00;63355.56;5077006;28;20052;-82
2022/06/17 04:30:32;;;;;;;6.32;2.83;;;;;;;-141.50;100.00;63355.56;5092920;28;20236;-81
2022/06/17 04:33:10;;;;;;;5.47;2.50;;;;;;;-141.50;100.00;63355.56;5093696;28;20255;-79
2022/06/17 04:35:37;;;;;;;6.68;2.65;;;;;;;-141.50;100.00;63355.56;5093870;28;20070;-81
2022/06/17 04:38:04;;;;;;;6.85;2.47;;;;;;;-141.50;100.00;63355.56;5094099;28;20064;-80
2022/06/17 04:40:50;;;;;;;7.20;2.95;;;;;;;-141.50;100.00;63355.56;5076987;28;20029;-80
2022/06/17 04:43:41;;;;;;;4.85;2.53;;;;;;;-141.50;100.00;63355.56;5089011;28;20104;-80
2022/06/17 04:46:07;;;;;;;6.65;2.22;;;;;;;-141.50;100.00;63355.56;5091928;28;20050;-80
2022/06/17 04:48:35;;;;;;;4.93;2.42;;;;;;;-141.50;100.00;63355.56;5091276;28;20131;-80
2022/06/17 04:51:04;;;;;;;8.18;2.78;;;;;;;-141.50;100.00;63355.56;5092204;28;20266;-79
2022/06/17 04:53:32;;;;;;;6.32;2.72;;;;;;;-141.50;100.00;63355.56;5090241;28;20055;-82
2022/06/17 04:56:00;;;;;;;9.68;2.70;;;;;;;-141.50;100.00;63355.56;5082605;28;20078;-80
2022/06/17 04:58:27;;;;;;;9.10;2.70;;;;;;;-141.50;100.00;63355.56;5067432;28;20082;-79
2022/06/17 05:00:56;;;;;;;5.63;2.78;;;;;;;-141.50;100.00;63355.56;5072155;28;20044;-80
2022/06/17 05:03:28;;;;;;;5.22;2.35;;;;;;;-141.50;100.00;63355.56;5087424;28;20044;-79
2022/06/17 05:05:55;;;;;;;10.07;2.47;;;;;;;-141.50;100.00;63355.56;5090556;28;20044;-79
2022/06/17 05:08:31;;;;;;;10.40;2.30;;;;;;;-141.50;100.00;63355.56;5090622;28;20037;-80
2022/06/17 05:11:10;;;;;;;7.55;2.60;;;;;;;-141.50;100.00;63355.56;5077828;28;20045;-81
2022/06/17 05:13:40;;;;;;;5.07;2.25;;;;;;;-141.50;100.00;63355.56;5078142;28;20168;-80
2022/06/17 05:16:12;;;;;;;8.32;2.30;;;;;;;-141.50;100.00;63355.56;5060325;28;20078;-80
2022/06/17 05:18:39;;;;;;;11.75;2.38;;;;;;;-141.50;100.00;63355.56;5072335;28;20087;-79
2022/06/17 05:21:12;;;;;;;5.13;2.25;;;;;;;-141.50;100.00;63355.56;5070784;28;20052;-80
2022/06/17 05:23:39;;;;;;;6.95;2.33;;;;;;;-141.50;100.00;63355.56;5072095;28;20052;-81
2022/06/17 05:26:05;;;;;;;6.78;2.28;;;;;;;-141.50;100.00;63355.56;5074516;28;20056;-78
2022/06/17 05:28:32;;;;;;;10.43;2.45;;;;;;;-141.50;100.00;63355.56;5069860;28;20568;-79
2022/06/17 05:31:00;;;;;;;7.47;2.40;;;;;;;-141.50;100.00;63355.56;5066270;28;20076;-78
2022/06/17 05:33:28;;;;;;;10.45;2.60;;;;;;;-141.50;100.00;63355.56;5067835;28;20087;-80
2022/06/17 05:35:55;;;;;;;8.68;2.45;;;;;;;-141.50;100.00;63355.56;5070477;28;20045;-80
2022/06/17 05:38:21;;;;;;;7.20;2.05;;;;;;;-141.50;100.00;63355.56;5048777;28;20059;-79
2022/06/17 05:40:48;;;;;;;9.35;2.00;;;;;;;-141.50;100.00;63355.56;5066133;28;20430;-81
2022/06/17 05:43:15;;;;;;;8.65;2.30;;;;;;;-141.50;100.00;63355.56;5067210;28;20064;-82
2022/06/17 05:45:41;;;;;;;4.82;1.67;;;;;;;-141.50;100.00;63355.56;5066994;28;20091;-82
2022/06/17 05:48:08;;;;;;;3.03;1.42;;;;;;;-141.50;100.00;63355.56;5067695;28;20104;-80
2022/06/17 05:50:37;;;;;;;6.10;1.60;;;;;;;-141.50;100.00;63355.56;5067358;28;20076;-80
2022/06/17 05:53:07;;;;;;;5.32;1.50;;;;;;;-141.50;100.00;63355.56;5068628;28;20533;-81
2022/06/17 05:55:36;;;;;;;5.82;1.60;;;;;;;-141.50;100.00;63355.56;5068582;28;20061;-81
2022/06/17 05:58:04;;;;;;;3.85;1.70;;;;;;;-141.50;100.00;63355.56;5067801;28;20659;-80
2022/06/17 06:00:32;;;;;;;17.08;2.70;;;;;;;-141.50;100.00;63355.56;5051379;28;20074;-81
2022/06/17 06:03:03;;;;;;;3.45;1.52;;;;;;;-141.50;100.00;63355.56;5068122;28;20055;-82
2022/06/17 06:05:32;;;;;;;5.60;1.95;;;;;;;-141.50;100.00;63355.56;5069919;28;20049;-82
2022/06/17 06:07:59;;;;;;;9.40;3.92;;;;;;;-141.50;100.00;63355.56;5075779;28;20045;-82
2022/06/17 06:10:33;;;;;;;5.20;1.60;;;;;;;-141.50;100.00;63355.56;5077895;28;20131;-81
2022/06/17 06:13:03;;;;;;;8.75;1.52;;;;;;;-141.50;100.00;63355.56;5058097;28;20091;-81
2022/06/17 06:15:30;;;;;;;2.90;1.40;;;;;;;-141.50;100.00;63355.56;5075140;28;20063;-81
2022/06/17 06:17:57;;;;;;;2.80;1.20;;;;;;;-141.50;100.00;63355.56;5075004;28;20049;-79
2022/06/17 06:20:24;;;;;;;6.05;1.27;;;;;;;-141.50;100.00;63355.56;5073103;28;20592;-80
2022/06/17 06:22:53;;;;;;;6.15;1.60;;;;;;;-141.50;100.00;63355.56;5056240;28;20136;-79
2022/06/17 06:25:20;;;;;;;2.13;1.30;;;;;;;-141.50;100.00;63355.56;5073450;28;20060;-82
2022/06/17 06:27:47;;;;;;;6.03;1.30;;;;;;;-141.50;100.00;63355.56;5075437;28;20049;-83
2022/06/17 06:30:23;;;;;;;2.17;1.05;;;;;;;-141.50;100.00;63355.56;5074364;28;20064;-81
2022/06/17 06:32:53;;;;;;;2.95;1.20;;;;;;;-141.50;100.00;63355.56;5074105;28;20049;-81
2022/06/17 06:35:22;;;;;;;9.82;1.70;;;;;;;-141.50;100.00;63355.56;5071774;28;20131;-81
2022/06/17 06:37:49;;;;;;;3.08;1.38;;;;;;;-141.50;100.00;63355.56;5071432;28;20347;-80
2022/06/17 06:40:16;;;;;;;4.72;1.42;;;;;;;-141.50;100.00;63355.56;5072600;28;20084;-80
2022/06/17 06:42:45;;;;;;;4.15;1.35;;;;;;;-141.50;100.00;63355.56;5072918;28;20098;-80
2022/06/17 06:45:16;;;;;;;6.47;1.42;;;;;;;-141.50;100.00;63355.56;5077174;28;20044;-79
2022/06/17 06:47:45;;;;;;;6.15;1.20;;;;;;;-141.50;100.00;63355.56;5091814;28;20048;-79
2022/06/17 06:50:14;;;;;;;4.00;1.17;;;;;;;-141.50;100.00;63355.56;5071089;28;20063;-79
2022/06/17 06:52:41;;;;;;;4.03;1.13;;;;;;;-141.50;100.00;63355.56;5084412;28;20583;-81
2022/06/17 06:55:09;;;;;;;5.20;1.02;;;;;;;-141.50;100.00;63355.56;5056510;28;20060;-82
2022/06/17 06:57:52;;;;;;;4.55;1.20;;;;;;;-141.50;100.00;63355.56;5074269;28;20075;-82
2022/06/17 07:00:29;;;;;;;8.45;1.20;;;;;;;-141.50;100.00;63355.56;5081812;28;20114;-80
2022/06/17 07:02:56;;;;;;;3.75;1.00;;;;;;;-141.50;100.00;63355.56;5054434;28;20048;-80
2022/06/17 07:05:25;;;;;;;7.10;1.20;;;;;;;-141.50;100.00;63355.56;5071935;28;20122;-81
2022/06/17 07:07:53;;;;;;;7.47;1.50;;;;;;;-141.50;100.00;63355.56;5073205;28;20125;-80
2022/06/17 07:10:26;;;;;;;5.13;1.45;;;;;;;-141.50;100.00;63355.56;5055179;28;20044;-80
2022/06/17 07:12:54;;;;;;;6.80;1.45;;;;;;;-141.50;100.00;63355.56;5073167;28;20056;-80
2022/06/17 07:15:22;;;;;;;4.07;1.45;;;;;;;-141.50;100.00;63355.56;5072993;28;20056;-81
2022/06/17 07:17:59;;;;;;;6.30;1.48;;;;;;;-141.50;100.00;63355.56;5072637;28;20114;-81
2022/06/17 07:20:36;;;;;;;4.50;1.10;;;;;;;-141.50;100.00;63355.56;5079818;28;20079;-79
2022/06/17 07:23:04;;;;;;;5.95;1.73;;;;;;;-141.50;100.00;63355.56;5087213;28;20545;-79
2022/06/17 07:25:31;;;;;;;2.90;1.08;;;;;;;-141.50;100.00;63355.56;5068618;28;20056;-79
2022/06/17 07:27:58;;;;;;;2.58;1.10;;;;;;;-141.50;100.00;63355.56;5083850;28;20051;-81
2022/06/17 07:30:24;;;;;;;6.25;1.13;;;;;;;-141.50;100.00;63355.56;5072604;28;20059;-81
2022/06/17 07:32:52;;;;;;;8.52;1.08;;;;;;;-141.50;100.00;63355.56;5073030;28;20132;-81
2022/06/17 07:35:18;;;;;;;4.38;1.10;;;;;;;-141.50;100.00;63355.56;5054506;28;20048;-81
2022/06/17 07:40:48;;;;;;;8.70;1.50;;;;;;;-141.50;100.00;63355.56;5037950;28;20071;-79
2022/06/17 07:43:16;;;;;;;5.03;1.23;;;;;;;-141.50;100.00;63355.56;5056088;28;20075;-81
2022/06/17 07:45:46;;;;;;;4.22;1.40;;;;;;;-141.50;100.00;63355.56;5072998;28;20102;-80
2022/06/17 07:48:14;;;;;;;10.50;1.60;;;;;;;-141.50;100.00;63355.56;5071661;28;20048;-80
2022/06/17 07:50:41;;;;;;;8.43;1.35;;;;;;;-141.50;100.00;63355.56;5069994;28;20136;-79
2022/06/17 07:53:08;;;;;;;4.25;1.30;;;;;;;-141.50;100.00;63355.56;5082375;28;20076;-79
2022/06/17 07:55:35;;;;;;;4.45;1.20;;;;;;;-141.50;100.00;63355.56;5060229;28;20117;-81
2022/06/17 07:58:02;;;;;;;4.30;1.42;;;;;;;-141.50;100.00;63355.56;5072638;28;20060;-81
2022/06/17 08:00:35;;;;;;;5.93;1.33;;;;;;;-141.50;100.00;63355.56;5072275;28;20044;-81
2022/06/17 08:03:11;;;;;;;6.07;1.25;;;;;;;-141.50;100.00;63355.56;5055952;28;20561;-80
2022/06/17 08:05:41;;;;;;;6.95;1.40;;;;;;;-141.50;100.00;63355.56;5080459;28;20052;-79
2022/06/17 08:08:08;;;;;;;6.55;1.65;;;;;;;-141.50;100.00;63355.56;5076560;28;20057;-80
2022/06/17 08:10:37;;;;;;;5.50;1.33;;;;;;;-141.50;100.00;63355.56;5074840;28;20091;-81
2022/06/17 08:13:07;;;;;;;5.70;1.40;;;;;;;-141.50;100.00;63355.56;5052895;28;20048;-80
2022/06/17 08:15:35;;;;;;;8.77;1.65;;;;;;;-141.50;100.00;63355.56;5070039;28;20072;-79
2022/06/17 08:18:02;;;;;;;4.30;1.10;;;;;;;-141.50;100.00;63355.56;5049724;28;20072;-79
2022/06/17 08:20:33;;;;;;;11.05;1.67;;;;;;;-141.50;100.00;63355.56;5062639;28;20056;-78
2022/06/17 08:23:02;;;;;;;6.70;1.60;;;;;;;-141.50;100.00;63355.56;5053872;28;20148;-78
2022/06/17 08:25:30;;;;;;;5.70;1.55;;;;;;;-141.50;100.00;63355.56;5052327;28;20106;-79
2022/06/17 08:27:58;;;;;;;5.20;1.70;;;;;;;-141.50;100.00;63355.56;5065627;28;20410;-79
2022/06/17 08:30:29;;;;;;;6.00;1.80;;;;;;;-141.50;100.00;63355.56;5051810;28;20181;-79
2022/06/17 08:32:56;;;;;;;5.45;1.45;;;;;;;-141.50;100.00;63355.56;5070517;28;20072;-80
2022/06/17 08:35:28;;;;;;;5.60;1.20;;;;;;;-141.50;100.00;63355.56;5053483;28;20130;-81
2022/06/17 08:38:00;;;;;;;6.05;1.38;;;;;;;-141.50;100.00;63355.56;5036909;28;20048;-80
2022/06/17 08:40:50;;;;;;;3.03;1.50;;;;;;;-141.50;100.00;63355.56;5071441;28;20044;-79
2022/06/17 08:43:22;;;;;;;5.47;1.30;;;;;;;-141.50;100.00;63355.56;5071556;28;20086;-78
2022/06/17 08:46:24;;;;;;;9.02;1.70;;;;;;;-141.50;100.00;63355.56;5071358;28;20120;-81
2022/06/17 08:48:59;;;;;;;4.65;1.50;;;;;;;-141.50;100.00;63355.56;5080759;28;20087;-81
2022/06/17 08:51:35;;;;;;;4.30;1.58;;;;;;;-141.50;100.00;63355.56;5061911;28;20053;-81
2022/06/17 08:54:06;;;;;;;;;;;;;;;-141.50;100.00;63355.56;5084138;28;20056;-81
2022/06/17 08:56:50;;;;;;;3.42;1.42;;;;;;;-141.50;100.00;63355.56;5081837;28;19927;-81
2022/06/17 08:59:26;;;;;;;3.42;1.13;;;;;;;-141.50;100.00;63355.56;5077574;28;20541;-81
2022/06/17 09:02:07;;;;;;;8.70;1.50;;;;;;;-141.50;100.00;63355.56;5081861;28;20074;-80
2022/06/17 09:05:06;;;;;;;12.38;1.38;;;;;;;-141.50;100.00;63355.56;5081584;28;20147;-81
2022/06/17 09:07:38;;;;;;;5.93;1.20;;;;;;;-141.50;100.00;63355.56;5021558;28;20497;-79
2022/06/17 09:10:08;;;;;;;5.82;1.27;;;;;;;-141.50;100.00;63355.56;5052802;28;20539;-81
2022/06/17 09:12:46;;;;;;;7.13;1.52;;;;;;;-141.50;100.00;63355.56;5050633;28;20124;-79
2022/06/17 09:15:33;;;;;;;6.57;1.70;;;;;;;-141.50;100.00;63355.56;5061641;28;20049;-81
2022/06/17 09:18:16;;;;;;;4.57;1.50;;;;;;;-141.50;100.00;63355.56;5054859;28;20453;-81
2022/06/17 09:20:46;;;;;;;4.85;1.20;;;;;;;-141.50;100.00;63355.56;5063482;28;20293;-80
2022/06/17 09:23:18;;;;;;;7.05;1.42;;;;;;;-141.50;100.00;63355.56;5051340;28;20111;-80
2022/06/17 09:25:47;;;;;;;5.80;1.45;;;;;;;-141.50;100.00;63355.56;5052073;28;20525;-80
2022/06/17 09:28:22;;;;;;;4.55;1.25;;;;;;;-141.50;100.00;63355.56;5069869;28;20096;-79
2022/06/17 09:31:01;;;;;;;9.30;1.20;;;;;;;-141.50;100.00;63355.56;5070437;28;20088;-82
2022/06/17 09:33:37;;;;;;;6.75;1.40;;;;;;;-141.50;100.00;63355.56;5070103;28;20130;-81
2022/06/17 09:36:36;;;;;;;2.92;1.13;;;;;;;-141.50;100.00;63355.56;5052607;28;20291;-81
2022/06/17 09:39:28;;;;;;;8.48;1.30;;;;;;;-141.50;100.00;63355.56;5071378;28;20102;-80
2022/06/17 09:42:06;;;;;;;6.88;1.23;;;;;;;-141.50;100.00;63355.56;5052258;28;20136;-80
2022/06/17 09:45:03;;;;;;;3.13;0.93;;;;;;;-141.50;100.00;63355.56;5073240;28;20127;-81
2022/06/17 09:47:36;;;;;;;7.10;1.60;;;;;;;-141.50;100.00;63355.56;5076514;28;20114;-83
2022/06/17 09:50:28;;;;;;;5.90;1.20;;;;;;;-141.50;100.00;63355.56;5073763;28;20407;-81
2022/06/17 09:53:01;;;;;;;8.05;1.15;;;;;;;-141.50;100.00;63355.56;5073926;28;20048;-81
2022/06/17 09:55:41;;;;;;;5.90;1.20;;;;;;;-141.50;100.00;63355.56;5073786;28;20138;-81
2022/06/17 09:58:19;;;;;;;6.25;1.20;;;;;;;-141.50;100.00;63355.56;5075065;28;20637;-83
2022/06/17 10:00:50;;;;;;;7.07;1.10;;;;;;;-141.50;100.00;63355.56;5073553;28;20089;-80
2022/06/17 10:03:27;;;;;;;4.18;1.00;;;;;;;-141.50;100.00;63355.56;5056647;28;20049;-81
2022/06/17 10:05:56;;;;;;;5.55;1.00;;;;;;;-141.50;100.00;63355.56;5064354;28;20088;-80
2022/06/17 10:08:52;;;;;;;6.18;1.35;;;;;;;-141.50;100.00;63355.56;5084140;28;20058;-79
2022/06/17 10:11:32;;;;;;;5.50;1.23;;;;;;;-141.50;100.00;63355.56;5087559;28;20048;-79
2022/06/17 10:14:11;;;;;;;3.42;1.10;;;;;;;-141.50;100.00;63355.56;5084670;28;20308;-78
2022/06/17 10:19:54;;;;;;;7.07;1.15;;;;;;;-141.50;100.00;63355.56;5059350;28;20079;-81
2022/06/17 10:22:40;;;;;;;2.95;1.17;;;;;;;-141.50;100.00;63355.56;5069436;28;20110;-81
2022/06/17 10:25:50;;;;;;;2.17;1.20;;;;;;;-141.50;100.00;63355.56;5032877;28;20095;-81
2022/06/17 10:28:51;;;;;;;9.32;1.40;;;;;;;-141.50;100.00;63355.56;5060307;28;20105;-79
2022/06/17 10:31:38;;;;;;;4.60;1.13;;;;;;;-141.50;100.00;63355.56;5052616;28;20086;-81
2022/06/17 10:34:18;;;;;;;3.25;1.30;;;;;;;-141.50;100.00;63355.56;5070154;28;20044;-80
2022/06/17 10:36:46;;;;;;;4.07;1.10;;;;;;;-141.50;100.00;63355.56;5071465;28;20591;-80
2022/06/17 10:39:17;;;;;;;8.85;1.27;;;;;;;-141.50;100.00;63355.56;5067252;28;20070;-82
2022/06/17 10:41:44;;;;;;;5.30;1.25;;;;;;;-141.50;100.00;63355.56;5081943;28;20053;-82
2022/06/17 10:44:15;;;;;;;4.70;1.17;;;;;;;-141.50;100.00;63355.56;5055236;28;20052;-82
2022/06/17 10:46:57;;;;;;;7.68;1.25;;;;;;;-141.50;100.00;63355.56;5072849;28;20052;-83
2022/06/17 10:49:38;;;;;;;5.65;1.13;;;;;;;-141.50;100.00;63355.56;5074570;28;20048;-81
2022/06/17 10:52:17;;;;;;;4.93;1.48;;;;;;;-141.50;100.00;63355.56;5074448;28;20056;-80
2022/06/17 10:54:48;;;;;;;6.07;1.23;;;;;;;-141.50;100.00;63355.56;5074912;28;20052;-81
2022/06/17 10:57:25;;;;;;;3.75;1.08;;;;;;;-141.50;100.00;63355.56;5077431;28;20052;-81
2022/06/17 10:59:52;;;;;;;2.97;1.15;;;;;;;-141.50;100.00;63355.56;5078451;28;20052;-83
2022/06/17 11:02:22;;;;;;;3.30;0.95;;;;;;;-141.50;100.00;63355.56;5068834;28;20033;-82
2022/06/17 11:04:51;;;;;;;3.03;0.85;;;;;;;-141.50;100.00;63355.56;5055773;28;20048;-82
2022/06/17 11:07:40;;;;;;;9.20;0.85;;;;;;;-141.50;100.00;63355.56;5068729;28;20263;-82
2022/06/17 11:10:13;;;;;;;5.43;1.02;;;;;;;-141.50;100.00;63355.56;5038820;28;20068;-83
2022/06/17 11:12:54;;;;;;;5.63;1.20;;;;;;;-141.50;100.00;63355.56;5056616;28;20041;-81
2022/06/17 11:15:24;;;;;;;6.60;1.00;;;;;;;-141.50;100.00;63355.56;5078476;28;20057;-82
2022/06/17 11:17:53;;;;;;;2.70;1.05;;;;;;;-141.50;100.00;63355.56;5057403;28;20135;-82
2022/06/17 11:20:24;;;;;;;7.78;1.20;;;;;;;-141.50;100.00;63355.56;5077322;28;20076;-83
2022/06/17 11:23:17;;;;;;;3.03;0.90;;;;;;;-141.50;100.00;63355.56;5089713;28;20079;-82
2022/06/17 11:25:44;;;;;;;4.10;0.70;;;;;;;-141.50;100.00;63355.56;5093121;28;20045;-83
2022/06/17 11:28:24;;;;;;;5.03;1.02;;;;;;;-141.50;100.00;63355.56;5092336;28;20045;-82
2022/06/17 11:31:00;;;;;;;8.52;1.65;;;;;;;-141.50;100.00;63355.56;5083997;28;20056;-82
2022/06/17 11:33:32;;;;;;;2.78;1.00;;;;;;;-141.50;100.00;63355.56;5076476;28;20495;-80
2022/06/17 11:36:14;;;;;;;4.03;1.00;;;;;;;-141.50;100.00;63355.56;5057265;28;20054;-81
2022/06/17 11:38:41;;;;;;;1.90;0.90;;;;;;;-141.50;100.00;63355.56;5058874;28;20231;-82
2022/06/17 11:41:32;;;;;;;1.85;0.82;;;;;;;-141.50;100.00;63355.56;5056086;28;20083;-79
2022/06/17 11:44:12;;;;;;;5.13;1.38;;;;;;;-141.50;100.00;63355.56;5059939;28;20106;-80